createdAt,value
2023-05-04T00:00:27.163Z,66.93
2023-05-04T00:01:27.143Z,66.93
2023-05-04T00:02:27.189Z,67.07
2023-05-04T00:03:27.233Z,67.07
2023-05-04T00:04:27.207Z,67.07
2023-05-04T00:05:27.114Z,67.27
2023-05-04T00:06:27.113Z,67.37
2023-05-04T00:07:27.074Z,67.47
2023-05-04T00:08:27.070Z,67.68
2023-05-04T00:09:27.048Z,67.68
2023-05-04T00:10:27.059Z,67.68
2023-05-04T00:11:27.039Z,67.78
2023-05-04T00:12:27.067Z,67.88
2023-05-04T00:13:27.015Z,67.78
2023-05-04T00:14:26.989Z,67.78
2023-05-04T00:15:26.989Z,67.78
2023-05-04T00:16:28.031Z,67.88
2023-05-04T00:17:27.184Z,67.98
2023-05-04T00:18:26.953Z,68.12
2023-05-04T00:19:26.943Z,68.12
2023-05-04T00:20:26.956Z,68.22
2023-05-04T00:21:26.918Z,68.12
2023-05-04T00:22:26.916Z,68.22
2023-05-04T00:23:26.929Z,68.22
2023-05-04T00:24:26.884Z,68.32
2023-05-04T00:25:26.871Z,68.32
2023-05-04T00:26:26.851Z,68.32
2023-05-04T00:27:26.866Z,68.42
2023-05-04T00:28:28.386Z,68.42
2023-05-04T00:29:26.896Z,68.52
2023-05-04T00:30:26.826Z,68.52
2023-05-04T00:31:26.904Z,68.73
2023-05-04T00:32:26.831Z,68.73
2023-05-04T00:33:26.775Z,68.73
2023-05-04T00:34:26.777Z,68.84
2023-05-04T00:35:26.813Z,68.84
2023-05-04T00:36:26.753Z,68.84
2023-05-04T00:37:26.738Z,68.93
2023-05-04T00:38:26.747Z,69.04
2023-05-04T00:39:26.724Z,68.93
2023-05-04T00:40:26.708Z,68.93
2023-05-04T00:41:26.740Z,68.97
2023-05-04T00:42:26.677Z,69.07
2023-05-04T00:43:26.676Z,69.07
2023-05-04T00:44:26.670Z,69.17
2023-05-04T00:45:26.658Z,69.27
2023-05-04T00:46:26.724Z,69.38
2023-05-04T00:47:26.711Z,69.48
2023-05-04T00:48:26.639Z,69.48
2023-05-04T00:49:26.602Z,69.48
2023-05-04T00:50:26.590Z,69.58
2023-05-04T00:51:26.629Z,69.79
2023-05-04T00:52:26.594Z,69.79
2023-05-04T00:53:26.595Z,69.79
2023-05-04T00:54:26.570Z,69.92
2023-05-04T00:55:26.534Z,70.03
2023-05-04T00:56:26.526Z,70.12
2023-05-04T00:57:26.547Z,70.23
2023-05-04T00:58:26.491Z,70.23
2023-05-04T00:59:26.512Z,70.33
2023-05-04T01:00:26.496Z,70.33
2023-05-04T01:01:26.495Z,70.43
2023-05-04T01:02:26.523Z,70.53
2023-05-04T01:03:26.713Z,70.64
2023-05-04T01:04:27.456Z,70.53
2023-05-04T01:05:26.432Z,70.74
2023-05-04T01:06:26.428Z,70.98
2023-05-04T01:07:26.417Z,70.98
2023-05-04T01:08:26.414Z,71.08
2023-05-04T01:09:26.382Z,71.28
2023-05-04T01:10:26.380Z,71.39
2023-05-04T01:11:26.353Z,71.39
2023-05-04T01:12:26.375Z,71.39
2023-05-04T01:13:26.344Z,71.39
2023-05-04T01:14:26.358Z,71.39
2023-05-04T01:15:26.321Z,71.28
2023-05-04T01:16:26.317Z,71.28
2023-05-04T01:17:26.458Z,71.18
2023-05-04T01:18:26.290Z,71.18
2023-05-04T01:19:26.371Z,71.18
2023-05-04T01:20:26.284Z,71.28
2023-05-04T01:21:26.259Z,71.49
2023-05-04T01:22:26.271Z,71.69
2023-05-04T01:23:26.253Z,71.93
2023-05-04T01:24:26.230Z,72.03
2023-05-04T01:25:26.225Z,72.24
2023-05-04T01:26:26.190Z,72.24
2023-05-04T01:27:26.201Z,72.34
2023-05-04T01:28:26.158Z,72.48
2023-05-04T01:29:26.155Z,72.68
2023-05-04T01:30:26.188Z,72.89
2023-05-04T01:31:26.292Z,73.30
2023-05-04T01:32:26.354Z,73.50
2023-05-04T01:33:26.288Z,73.71
2023-05-04T01:34:26.152Z,73.81
2023-05-04T01:35:27.565Z,73.85
2023-05-04T01:36:26.111Z,73.81
2023-05-04T01:37:26.075Z,73.81
2023-05-04T01:38:26.445Z,73.81
2023-05-04T01:39:27.022Z,74.05
2023-05-04T01:40:26.151Z,74.15
2023-05-04T01:41:26.446Z,74.15
2023-05-04T01:42:27.574Z,74.15
2023-05-04T01:43:26.178Z,74.15
2023-05-04T01:44:26.946Z,74.26
2023-05-04T01:45:27.041Z,74.36
2023-05-04T01:46:25.983Z,74.46
2023-05-04T01:47:27.457Z,74.46
2023-05-04T01:48:27.890Z,74.57
2023-05-04T01:49:25.980Z,74.66
2023-05-04T01:50:25.948Z,74.91
2023-05-04T01:51:25.915Z,75.01
2023-05-04T01:52:25.891Z,75.11
2023-05-04T01:53:25.950Z,75.11
2023-05-04T01:54:25.893Z,75.32
2023-05-04T01:55:25.892Z,75.42
2023-05-04T01:56:25.910Z,75.52
2023-05-04T01:57:25.930Z,75.73
2023-05-04T01:58:26.803Z,75.62
2023-05-04T01:59:25.958Z,75.62
2023-05-04T02:00:27.276Z,75.62
2023-05-04T02:01:25.815Z,75.73
2023-05-04T02:02:25.864Z,75.73
2023-05-04T02:03:26.878Z,75.73
2023-05-04T02:04:25.789Z,75.76
2023-05-04T02:05:25.767Z,75.87
2023-05-04T02:06:25.849Z,76.07
2023-05-04T02:07:25.722Z,76.07
2023-05-04T02:08:25.747Z,76.17
2023-05-04T02:09:25.752Z,76.38
2023-05-04T02:10:25.701Z,76.48
2023-05-04T02:11:25.712Z,76.58
2023-05-04T02:12:25.695Z,76.58
2023-05-04T02:13:25.685Z,76.68
2023-05-04T02:14:25.690Z,76.68
2023-05-04T02:15:25.636Z,76.79
2023-05-04T02:16:25.714Z,76.82
2023-05-04T02:17:25.643Z,77.00
2023-05-04T02:18:27.075Z,77.13
2023-05-04T02:19:25.614Z,77.23
2023-05-04T02:20:25.618Z,77.23
2023-05-04T02:21:27.156Z,77.23
2023-05-04T02:22:25.584Z,77.34
2023-05-04T02:23:25.560Z,77.34
2023-05-04T02:24:25.544Z,77.44
2023-05-04T02:25:25.564Z,77.55
2023-05-04T02:26:27.065Z,77.78
2023-05-04T02:27:25.507Z,77.99
2023-05-04T02:28:25.532Z,78.09
2023-05-04T02:29:25.492Z,78.30
2023-05-04T02:30:25.501Z,78.50
2023-05-04T02:31:25.524Z,78.61
2023-05-04T02:32:25.467Z,78.85
2023-05-04T02:33:25.480Z,79.05
2023-05-04T02:34:25.544Z,79.16
2023-05-04T02:35:25.431Z,79.36
2023-05-04T02:36:25.446Z,79.57
2023-05-04T02:37:25.655Z,79.77
2023-05-04T02:38:25.392Z,79.88
2023-05-04T02:39:25.467Z,80.02
2023-05-04T02:40:25.383Z,80.22
2023-05-04T02:41:25.648Z,80.22
2023-05-04T02:42:25.366Z,80.53
2023-05-04T02:43:25.640Z,80.74
2023-05-04T02:44:25.377Z,80.84
2023-05-04T02:45:25.382Z,81.09
2023-05-04T02:46:25.305Z,81.29
2023-05-04T02:47:25.318Z,81.49
2023-05-04T02:48:26.098Z,81.81
2023-05-04T02:49:25.290Z,81.91
2023-05-04T02:50:26.719Z,82.01
2023-05-04T02:51:25.707Z,82.11
2023-05-04T02:52:25.257Z,82.21
2023-05-04T02:53:25.248Z,82.21
2023-05-04T02:54:25.285Z,82.21
2023-05-04T02:55:25.242Z,82.21
2023-05-04T02:56:25.229Z,82.21
2023-05-04T02:57:26.712Z,82.42
2023-05-04T02:58:25.216Z,82.53
2023-05-04T02:59:25.193Z,82.63
2023-05-04T03:00:25.157Z,82.53
2023-05-04T03:01:25.230Z,82.42
2023-05-04T03:02:25.172Z,82.42
2023-05-04T03:03:25.158Z,82.42
2023-05-04T03:04:25.231Z,82.42
2023-05-04T03:05:25.121Z,82.35
2023-05-04T03:06:25.124Z,82.35
2023-05-04T03:07:25.083Z,82.56
2023-05-04T03:08:25.062Z,82.77
2023-05-04T03:09:25.127Z,82.87
2023-05-04T03:10:25.052Z,82.77
2023-05-04T03:11:25.174Z,82.77
2023-05-04T03:12:25.106Z,82.77
2023-05-04T03:13:25.093Z,82.87
2023-05-04T03:14:25.013Z,82.97
2023-05-04T03:15:24.998Z,83.07
2023-05-04T03:16:25.040Z,83.04
2023-05-04T03:17:24.983Z,82.93
2023-05-04T03:18:25.011Z,82.93
2023-05-04T03:19:25.018Z,82.93
2023-05-04T03:20:24.949Z,82.97
2023-05-04T03:21:24.954Z,83.07
2023-05-04T03:22:24.977Z,83.04
2023-05-04T03:23:24.966Z,83.04
2023-05-04T03:24:25.049Z,82.93
2023-05-04T03:25:24.909Z,82.83
2023-05-04T03:26:24.882Z,82.73
2023-05-04T03:27:24.948Z,82.73
2023-05-04T03:28:24.898Z,82.63
2023-05-04T03:29:24.842Z,82.56
2023-05-04T03:30:24.823Z,82.56
2023-05-04T03:31:24.853Z,82.67
2023-05-04T03:32:24.833Z,82.67
2023-05-04T03:33:24.835Z,82.56
2023-05-04T03:34:24.828Z,82.67
2023-05-04T03:35:25.329Z,82.67
2023-05-04T03:36:24.774Z,82.67
2023-05-04T03:37:24.735Z,82.77
2023-05-04T03:38:26.250Z,82.97
2023-05-04T03:39:24.778Z,83.07
2023-05-04T03:40:24.720Z,83.18
2023-05-04T03:41:24.711Z,83.28
2023-05-04T03:42:24.745Z,83.28
2023-05-04T03:43:24.677Z,83.42
2023-05-04T03:44:24.669Z,83.53
2023-05-04T03:45:24.645Z,83.73
2023-05-04T03:46:24.753Z,83.94
2023-05-04T03:47:24.674Z,84.25
2023-05-04T03:48:24.619Z,84.45
2023-05-04T03:49:24.609Z,84.56
2023-05-04T03:50:26.072Z,84.77
2023-05-04T03:51:24.616Z,84.77
2023-05-04T03:52:24.584Z,84.77
2023-05-04T03:53:24.597Z,84.87
2023-05-04T03:54:24.571Z,84.77
2023-05-04T03:55:24.549Z,84.66
2023-05-04T03:56:24.530Z,84.66
2023-05-04T03:57:24.801Z,84.77
2023-05-04T03:58:24.552Z,84.77
2023-05-04T03:59:25.510Z,84.91
2023-05-04T04:00:24.513Z,84.91
2023-05-04T04:01:24.520Z,85.01
2023-05-04T04:02:24.582Z,85.11
2023-05-04T04:03:24.649Z,85.22
2023-05-04T04:04:24.535Z,85.31
2023-05-04T04:05:24.510Z,85.42
2023-05-04T04:06:24.434Z,85.52
2023-05-04T04:07:24.508Z,85.63
2023-05-04T04:08:24.452Z,85.63
2023-05-04T04:09:24.426Z,85.73
2023-05-04T04:10:24.506Z,85.83
2023-05-04T04:11:24.368Z,85.94
2023-05-04T04:12:24.425Z,86.08
2023-05-04T04:13:24.359Z,86.18
2023-05-04T04:14:25.291Z,86.29
2023-05-04T04:15:24.340Z,86.39
2023-05-04T04:16:24.453Z,86.49
2023-05-04T04:17:24.446Z,86.60
2023-05-04T04:18:24.315Z,86.70
2023-05-04T04:19:24.271Z,86.60
2023-05-04T04:20:24.275Z,86.49
2023-05-04T04:21:24.249Z,86.39
2023-05-04T04:22:25.248Z,86.39
2023-05-04T04:23:24.245Z,86.39
2023-05-04T04:24:26.212Z,86.29
2023-05-04T04:25:24.240Z,86.39
2023-05-04T04:26:24.250Z,86.60
2023-05-04T04:27:24.405Z,86.70
2023-05-04T04:28:24.183Z,86.70
2023-05-04T04:29:24.150Z,86.80
2023-05-04T04:30:24.188Z,86.90
2023-05-04T04:31:24.184Z,86.80
2023-05-04T04:32:24.171Z,86.80
2023-05-04T04:33:24.136Z,86.76
2023-05-04T04:34:24.130Z,86.66
2023-05-04T04:35:24.390Z,86.55
2023-05-04T04:36:24.123Z,86.55
2023-05-04T04:37:24.079Z,86.45
2023-05-04T04:38:24.402Z,86.45
2023-05-04T04:39:24.062Z,86.45
2023-05-04T04:40:24.044Z,86.45
2023-05-04T04:41:24.023Z,86.35
2023-05-04T04:42:24.071Z,86.35
2023-05-04T04:43:24.124Z,86.35
2023-05-04T04:44:24.182Z,86.35
2023-05-04T04:45:24.000Z,86.24
2023-05-04T04:46:24.264Z,86.24
2023-05-04T04:47:24.064Z,86.24
2023-05-04T04:48:24.004Z,86.15
2023-05-04T04:49:23.944Z,86.15
2023-05-04T04:50:23.935Z,86.24
2023-05-04T04:51:24.141Z,86.24
2023-05-04T04:52:23.899Z,86.24
2023-05-04T04:53:24.877Z,86.24
2023-05-04T04:54:23.895Z,86.35
2023-05-04T04:55:23.875Z,86.35
2023-05-04T04:56:23.890Z,86.45
2023-05-04T04:57:23.857Z,86.45
2023-05-04T04:58:23.879Z,86.45
2023-05-04T04:59:23.826Z,86.35
2023-05-04T05:00:23.867Z,86.15
2023-05-04T05:01:24.631Z,86.00
2023-05-04T05:02:23.807Z,85.89
2023-05-04T05:03:23.835Z,85.89
2023-05-04T05:04:23.983Z,85.79
2023-05-04T05:05:23.777Z,85.89
2023-05-04T05:06:24.612Z,85.89
2023-05-04T05:07:23.741Z,85.89
2023-05-04T05:08:23.747Z,86.00
2023-05-04T05:09:23.726Z,86.10
2023-05-04T05:10:23.707Z,86.06
2023-05-04T05:11:23.731Z,86.06
2023-05-04T05:12:23.743Z,85.96
2023-05-04T05:13:23.683Z,85.86
2023-05-04T05:14:23.671Z,85.71
2023-05-04T05:15:24.707Z,85.61
2023-05-04T05:16:24.680Z,85.61
2023-05-04T05:17:24.745Z,85.51
2023-05-04T05:18:24.455Z,85.36
2023-05-04T05:19:23.628Z,85.16
2023-05-04T05:20:23.613Z,85.06
2023-05-04T05:21:23.700Z,84.85
2023-05-04T05:22:23.596Z,84.75
2023-05-04T05:23:23.622Z,84.64
2023-05-04T05:24:23.604Z,84.61
2023-05-04T05:25:23.574Z,84.61
2023-05-04T05:26:23.579Z,84.61
2023-05-04T05:27:24.364Z,84.40
2023-05-04T05:28:23.540Z,84.30
2023-05-04T05:29:23.534Z,84.26
2023-05-04T05:30:23.497Z,84.05
2023-05-04T05:31:23.545Z,83.85
2023-05-04T05:32:23.465Z,83.64
2023-05-04T05:33:23.485Z,83.61
2023-05-04T05:34:23.441Z,83.50
2023-05-04T05:35:23.445Z,83.50
2023-05-04T05:36:23.435Z,83.50
2023-05-04T05:37:23.990Z,83.36
2023-05-04T05:38:23.451Z,83.15
2023-05-04T05:39:23.398Z,83.05
2023-05-04T05:40:23.383Z,82.81
2023-05-04T05:41:23.360Z,82.50
2023-05-04T05:42:23.374Z,82.40
2023-05-04T05:43:23.388Z,82.36
2023-05-04T05:44:23.461Z,82.56
2023-05-04T05:45:23.341Z,82.87
2023-05-04T05:46:23.466Z,82.93
2023-05-04T05:47:23.319Z,83.14
2023-05-04T05:48:23.308Z,83.10
2023-05-04T05:49:23.281Z,82.90
2023-05-04T05:50:23.270Z,82.76
2023-05-04T05:51:23.253Z,82.55
2023-05-04T05:52:23.391Z,82.04
2023-05-04T05:53:23.250Z,81.49
2023-05-04T05:54:23.229Z,81.18
2023-05-04T05:55:23.211Z,80.94
2023-05-04T05:56:23.219Z,80.74
2023-05-04T05:57:24.011Z,80.33
2023-05-04T05:58:23.251Z,79.68
2023-05-04T05:59:23.182Z,78.75
2023-05-04T06:00:23.192Z,78.55
2023-05-04T06:01:23.191Z,78.45
2023-05-04T06:02:23.308Z,78.34
2023-05-04T06:03:24.745Z,78.11
2023-05-04T06:04:23.129Z,77.80
2023-05-04T06:05:23.099Z,77.49
2023-05-04T06:06:23.095Z,77.29
2023-05-04T06:07:23.098Z,77.04
2023-05-04T06:08:23.069Z,76.74
2023-05-04T06:09:23.061Z,76.64
2023-05-04T06:10:23.057Z,76.43
2023-05-04T06:11:23.400Z,75.89
2023-05-04T06:12:23.055Z,75.58
2023-05-04T06:13:23.013Z,75.78
2023-05-04T06:14:22.997Z,75.89
2023-05-04T06:15:23.043Z,75.78
2023-05-04T06:16:23.013Z,75.68
2023-05-04T06:17:23.820Z,75.68
2023-05-04T06:18:22.948Z,74.83
2023-05-04T06:19:22.948Z,74.73
2023-05-04T06:20:22.954Z,74.73
2023-05-04T06:21:22.923Z,74.42
2023-05-04T06:22:22.909Z,74.22
2023-05-04T06:23:22.896Z,73.91
2023-05-04T06:24:22.892Z,73.71
2023-05-04T06:25:22.934Z,72.89
2023-05-04T06:26:22.904Z,72.07
2023-05-04T06:27:24.302Z,72.17
2023-05-04T06:28:22.922Z,72.28
2023-05-04T06:29:22.829Z,72.48
2023-05-04T06:30:22.816Z,72.65
2023-05-04T06:31:22.875Z,73.06
2023-05-04T06:32:22.846Z,72.86
2023-05-04T06:33:22.934Z,72.04
2023-05-04T06:34:22.823Z,72.04
2023-05-04T06:35:22.771Z,71.94
2023-05-04T06:36:22.748Z,72.04
2023-05-04T06:37:22.749Z,71.43
2023-05-04T06:38:22.861Z,70.51
2023-05-04T06:39:22.726Z,70.00
2023-05-04T06:40:24.532Z,70.72
2023-05-04T06:41:22.787Z,71.33
2023-05-04T06:42:22.779Z,71.43
2023-05-04T06:43:22.721Z,71.84
2023-05-04T06:44:24.180Z,70.61
2023-05-04T06:45:23.623Z,69.59
2023-05-04T06:46:22.729Z,69.59
2023-05-04T06:47:23.730Z,70.17
2023-05-04T06:48:22.701Z,70.07
2023-05-04T06:49:22.617Z,70.17
2023-05-04T06:50:22.593Z,70.37
2023-05-04T06:51:22.626Z,70.17
2023-05-04T06:52:22.994Z,69.46
2023-05-04T06:53:22.591Z,69.05
2023-05-04T06:54:22.558Z,68.84
2023-05-04T06:55:22.565Z,68.40
2023-05-04T06:56:22.522Z,68.30
2023-05-04T06:57:22.572Z,68.30
2023-05-04T06:58:22.523Z,68.10
2023-05-04T06:59:22.498Z,67.90
2023-05-04T07:00:22.485Z,67.55
2023-05-04T07:01:22.489Z,67.46
2023-05-04T07:02:22.633Z,67.25
2023-05-04T07:03:22.499Z,67.05
2023-05-04T07:04:22.874Z,66.94
2023-05-04T07:05:22.475Z,67.02
2023-05-04T07:06:22.436Z,67.32
2023-05-04T07:07:22.431Z,67.12
2023-05-04T07:08:22.418Z,67.12
2023-05-04T07:09:22.744Z,67.49
2023-05-04T07:10:24.342Z,67.80
2023-05-04T07:11:22.378Z,67.39
2023-05-04T07:12:22.360Z,67.57
2023-05-04T07:13:22.368Z,67.66
2023-05-04T07:14:22.375Z,66.96
2023-05-04T07:15:23.798Z,66.44
2023-05-04T07:16:22.353Z,66.24
2023-05-04T07:17:22.773Z,66.61
2023-05-04T07:18:22.294Z,66.92
2023-05-04T07:19:22.292Z,67.13
2023-05-04T07:20:25.033Z,66.61
2023-05-04T07:21:28.466Z,65.47
2023-05-04T07:22:23.238Z,65.06
2023-05-04T07:23:22.236Z,65.57
2023-05-04T07:24:22.231Z,65.57
2023-05-04T07:25:22.222Z,65.77
2023-05-04T07:26:22.321Z,65.64
2023-05-04T07:27:22.349Z,65.54
2023-05-04T07:28:23.639Z,65.23
2023-05-04T07:29:22.162Z,64.93
2023-05-04T07:30:23.618Z,65.03
2023-05-04T07:31:22.346Z,65.30
2023-05-04T07:32:23.125Z,65.20
2023-05-04T07:33:22.159Z,64.79
2023-05-04T07:34:30.500Z,64.59
2023-05-04T07:35:23.250Z,64.39
2023-05-04T07:36:22.077Z,64.39
2023-05-04T07:37:22.446Z,64.39
2023-05-04T07:38:22.507Z,64.18
2023-05-04T07:39:22.074Z,64.06
2023-05-04T07:40:23.510Z,64.15
2023-05-04T07:41:22.513Z,64.26
2023-05-04T07:42:22.076Z,64.36
2023-05-04T07:43:22.548Z,63.92
2023-05-04T07:44:23.461Z,64.13
2023-05-04T07:45:21.992Z,63.92
2023-05-04T07:46:24.062Z,64.13
2023-05-04T07:47:23.452Z,64.03
2023-05-04T07:48:23.441Z,64.00
2023-05-04T07:49:21.957Z,63.89
2023-05-04T07:50:21.936Z,63.69
2023-05-04T07:51:23.472Z,63.46
2023-05-04T07:52:21.952Z,63.35
2023-05-04T07:53:23.366Z,63.35
2023-05-04T07:54:23.444Z,63.12
2023-05-04T07:55:22.063Z,62.41
2023-05-04T07:56:21.895Z,62.21
2023-05-04T07:57:22.671Z,61.71
2023-05-04T07:58:21.965Z,61.80
2023-05-04T07:59:21.869Z,61.88
2023-05-04T08:00:22.663Z,61.78
2023-05-04T08:01:21.821Z,61.37
2023-05-04T08:02:21.875Z,61.27
2023-05-04T08:03:23.409Z,61.04
2023-05-04T08:04:22.746Z,60.23
2023-05-04T08:05:21.839Z,60.33
2023-05-04T08:06:21.790Z,60.53
2023-05-04T08:07:22.567Z,60.84
2023-05-04T08:08:21.907Z,60.53
2023-05-04T08:09:22.055Z,60.53
2023-05-04T08:10:21.759Z,60.50
2023-05-04T08:11:21.924Z,60.41
2023-05-04T08:12:21.701Z,60.10
2023-05-04T08:13:22.659Z,59.80
2023-05-04T08:14:21.673Z,60.00
2023-05-04T08:15:21.686Z,60.10
2023-05-04T08:16:23.618Z,60.17
2023-05-04T08:17:21.714Z,60.07
2023-05-04T08:18:21.644Z,59.36
2023-05-04T08:19:21.611Z,59.47
2023-05-04T08:20:23.521Z,59.67
2023-05-04T08:21:21.836Z,59.64
2023-05-04T08:22:21.580Z,59.23
2023-05-04T08:23:21.760Z,58.73
2023-05-04T08:24:21.557Z,58.50
2023-05-04T08:25:22.022Z,58.40
2023-05-04T08:26:21.547Z,58.00
2023-05-04T08:27:22.543Z,57.87
2023-05-04T08:28:21.691Z,58.67
2023-05-04T08:29:21.527Z,58.67
2023-05-04T08:30:21.499Z,58.34
2023-05-04T08:31:21.575Z,58.04
2023-05-04T08:32:21.472Z,56.63
2023-05-04T08:33:22.415Z,56.20
2023-05-04T08:34:21.615Z,56.20
2023-05-04T08:35:21.436Z,55.99
2023-05-04T08:36:21.458Z,55.77
2023-05-04T08:37:21.419Z,56.07
2023-05-04T08:38:21.476Z,56.37
2023-05-04T08:39:21.451Z,56.48
2023-05-04T08:40:21.387Z,56.48
2023-05-04T08:41:21.382Z,55.94
2023-05-04T08:42:21.411Z,55.64
2023-05-04T08:43:21.348Z,55.54
2023-05-04T08:44:21.324Z,56.04
2023-05-04T08:45:22.163Z,56.35
2023-05-04T08:46:21.400Z,56.15
2023-05-04T08:47:21.314Z,55.82
2023-05-04T08:48:21.331Z,55.62
2023-05-04T08:49:21.291Z,55.41
2023-05-04T08:50:22.766Z,54.50
2023-05-04T08:51:21.281Z,54.41
2023-05-04T08:52:22.705Z,54.41
2023-05-04T08:53:22.200Z,54.38
2023-05-04T08:54:21.241Z,54.18
2023-05-04T08:55:21.857Z,53.88
2023-05-04T08:56:21.220Z,53.78
2023-05-04T08:57:21.229Z,53.65
2023-05-04T08:58:21.169Z,53.65
2023-05-04T08:59:21.216Z,53.95
2023-05-04T09:00:21.260Z,53.95
2023-05-04T09:01:21.208Z,53.55
2023-05-04T09:02:21.214Z,53.34
2023-05-04T09:03:22.691Z,53.32
2023-05-04T09:04:21.462Z,53.32
2023-05-04T09:05:21.162Z,52.92
2023-05-04T09:06:21.498Z,52.92
2023-05-04T09:07:21.476Z,53.02
2023-05-04T09:08:21.427Z,52.92
2023-05-04T09:09:21.057Z,53.02
2023-05-04T09:10:21.140Z,53.12
2023-05-04T09:11:21.060Z,52.80
2023-05-04T09:12:21.012Z,52.80
2023-05-04T09:13:21.066Z,52.69
2023-05-04T09:14:21.010Z,52.69
2023-05-04T09:15:21.406Z,52.49
2023-05-04T09:16:21.081Z,52.59
2023-05-04T09:17:22.567Z,53.00
2023-05-04T09:18:21.157Z,53.20
2023-05-04T09:19:20.993Z,53.09
2023-05-04T09:20:21.137Z,52.39
2023-05-04T09:21:20.931Z,52.47
2023-05-04T09:22:21.725Z,52.77
2023-05-04T09:23:20.949Z,53.17
2023-05-04T09:24:20.914Z,52.97
2023-05-04T09:25:20.873Z,53.47
2023-05-04T09:26:20.965Z,53.55
2023-05-04T09:27:20.865Z,53.14
2023-05-04T09:28:20.889Z,52.74
2023-05-04T09:29:20.851Z,52.64
2023-05-04T09:30:20.829Z,51.24
2023-05-04T09:31:20.889Z,51.14
2023-05-04T09:32:20.844Z,51.21
2023-05-04T09:33:20.811Z,51.51
2023-05-04T09:34:20.826Z,51.31
2023-05-04T09:35:31.984Z,50.81
2023-05-04T09:36:21.771Z,50.21
2023-05-04T09:37:20.789Z,50.71
2023-05-04T09:38:20.813Z,51.31
2023-05-04T09:39:22.255Z,50.71
2023-05-04T09:40:20.735Z,51.01
2023-05-04T09:41:20.738Z,50.71
2023-05-04T09:42:20.703Z,50.79
2023-05-04T09:43:20.687Z,50.99
2023-05-04T09:44:22.162Z,50.18
2023-05-04T09:45:21.641Z,50.38
2023-05-04T09:46:20.751Z,50.48
2023-05-04T09:47:20.637Z,50.68
2023-05-04T09:48:20.811Z,50.89
2023-05-04T09:49:20.622Z,50.56
2023-05-04T09:50:21.253Z,50.36
2023-05-04T09:51:20.591Z,50.56
2023-05-04T09:52:21.399Z,50.26
2023-05-04T09:53:22.033Z,50.56
2023-05-04T09:54:20.602Z,49.96
2023-05-04T09:55:20.600Z,49.66
2023-05-04T09:56:20.580Z,49.76
2023-05-04T09:57:20.607Z,50.36
2023-05-04T09:58:21.965Z,50.66
2023-05-04T09:59:20.497Z,51.06
2023-05-04T10:00:20.597Z,50.74
2023-05-04T10:01:20.564Z,51.04
2023-05-04T10:02:23.125Z,51.04
2023-05-04T10:03:20.516Z,50.63
2023-05-04T10:04:21.425Z,50.94
2023-05-04T10:05:21.718Z,51.42
2023-05-04T10:06:20.431Z,50.71
2023-05-04T10:07:20.413Z,49.81
2023-05-04T10:08:20.495Z,49.61
2023-05-04T10:09:20.466Z,50.01
2023-05-04T10:10:20.393Z,50.01
2023-05-04T10:11:20.402Z,50.49
2023-05-04T10:12:21.341Z,50.49
2023-05-04T10:13:20.347Z,50.59
2023-05-04T10:14:20.325Z,49.58
2023-05-04T10:15:20.356Z,49.99
2023-05-04T10:16:22.345Z,50.09
2023-05-04T10:17:21.976Z,49.39
2023-05-04T10:18:20.688Z,49.46
2023-05-04T10:19:20.284Z,49.87
2023-05-04T10:20:20.297Z,49.87
2023-05-04T10:21:20.291Z,49.87
2023-05-04T10:22:20.277Z,49.46
2023-05-04T10:23:21.972Z,48.76
2023-05-04T10:24:20.238Z,48.66
2023-05-04T10:25:20.254Z,48.36
2023-05-04T10:26:20.301Z,48.46
2023-05-04T10:27:20.205Z,48.86
2023-05-04T10:28:20.212Z,49.07
2023-05-04T10:29:21.379Z,48.96
2023-05-04T10:30:20.162Z,48.96
2023-05-04T10:31:20.177Z,48.66
2023-05-04T10:32:20.144Z,48.46
2023-05-04T10:33:20.152Z,48.46
2023-05-04T10:34:20.168Z,48.86
2023-05-04T10:35:20.167Z,49.07
2023-05-04T10:36:20.098Z,49.26
2023-05-04T10:37:20.106Z,49.24
2023-05-04T10:38:20.089Z,47.86
2023-05-04T10:39:20.074Z,47.66
2023-05-04T10:40:20.057Z,47.56
2023-05-04T10:41:20.053Z,47.76
2023-05-04T10:42:20.063Z,48.54
2023-05-04T10:43:20.050Z,48.84
2023-05-04T10:44:20.025Z,49.04
2023-05-04T10:45:20.001Z,49.34
2023-05-04T10:46:21.556Z,49.11
2023-05-04T10:47:19.972Z,48.42
2023-05-04T10:48:20.018Z,48.42
2023-05-04T10:49:19.954Z,48.42
2023-05-04T10:50:19.949Z,48.52
2023-05-04T10:51:19.947Z,47.92
2023-05-04T10:52:19.924Z,48.02
2023-05-04T10:53:19.892Z,48.02
2023-05-04T10:54:20.384Z,48.72
2023-05-04T10:55:19.881Z,48.90
2023-05-04T10:56:19.879Z,48.19
2023-05-04T10:57:19.873Z,47.39
2023-05-04T10:58:19.871Z,46.80
2023-05-04T10:59:19.837Z,46.59
2023-05-04T11:00:19.865Z,46.99
2023-05-04T11:01:19.900Z,47.30
2023-05-04T11:02:19.882Z,47.79
2023-05-04T11:03:19.884Z,48.10
2023-05-04T11:04:19.786Z,47.89
2023-05-04T11:05:19.787Z,48.29
2023-05-04T11:06:23.436Z,48.10
2023-05-04T11:07:19.815Z,46.77
2023-05-04T11:08:19.772Z,47.77
2023-05-04T11:09:19.752Z,48.47
2023-05-04T11:10:19.727Z,49.67
2023-05-04T11:11:19.731Z,48.87
2023-05-04T11:12:19.723Z,48.37
2023-05-04T11:13:19.811Z,48.37
2023-05-04T11:14:19.675Z,48.57
2023-05-04T11:15:19.694Z,48.07
2023-05-04T11:16:19.738Z,47.77
2023-05-04T11:17:28.206Z,47.27
2023-05-04T11:18:20.637Z,46.89
2023-05-04T11:19:19.617Z,46.19
2023-05-04T11:20:19.619Z,45.89
2023-05-04T11:21:19.643Z,45.69
2023-05-04T11:22:19.595Z,45.69
2023-05-04T11:23:19.584Z,45.89
2023-05-04T11:24:19.567Z,46.09
2023-05-04T11:25:19.552Z,45.50
2023-05-04T11:26:19.545Z,45.69
2023-05-04T11:27:19.566Z,45.59
2023-05-04T11:28:19.529Z,44.70
2023-05-04T11:29:19.536Z,44.79
2023-05-04T11:30:19.497Z,45.00
2023-05-04T11:31:19.534Z,44.49
2023-05-04T11:32:19.483Z,43.79
2023-05-04T11:33:19.504Z,42.60
2023-05-04T11:34:19.479Z,42.69
2023-05-04T11:35:19.446Z,43.90
2023-05-04T11:36:19.470Z,43.67
2023-05-04T11:37:19.430Z,44.07
2023-05-04T11:38:19.419Z,43.77
2023-05-04T11:39:19.416Z,44.47
2023-05-04T11:40:19.407Z,44.07
2023-05-04T11:41:19.391Z,43.77
2023-05-04T11:42:19.386Z,43.18
2023-05-04T11:43:19.372Z,42.07
2023-05-04T11:44:19.403Z,42.18
2023-05-04T11:45:19.355Z,41.96
2023-05-04T11:46:19.376Z,41.75
2023-05-04T11:47:19.308Z,40.56
2023-05-04T11:48:20.808Z,41.36
2023-05-04T11:49:19.291Z,41.75
2023-05-04T11:50:19.306Z,41.75
2023-05-04T11:51:19.269Z,42.15
2023-05-04T11:52:19.256Z,42.76
2023-05-04T11:53:19.267Z,43.05
2023-05-04T11:54:19.277Z,43.05
2023-05-04T11:55:19.220Z,42.25
2023-05-04T11:56:19.222Z,42.03
2023-05-04T11:57:19.320Z,41.03
2023-05-04T11:58:19.231Z,41.53
2023-05-04T11:59:19.193Z,41.93
2023-05-04T12:00:19.233Z,42.24
2023-05-04T12:01:19.162Z,42.63
2023-05-04T12:02:19.180Z,42.41
2023-05-04T12:03:19.257Z,42.41
2023-05-04T12:04:19.183Z,42.61
2023-05-04T12:05:20.600Z,42.81
2023-05-04T12:06:19.136Z,42.51
2023-05-04T12:07:19.086Z,42.71
2023-05-04T12:08:19.159Z,42.71
2023-05-04T12:09:19.098Z,42.61
2023-05-04T12:10:19.115Z,42.19
2023-05-04T12:11:19.062Z,42.32
2023-05-04T12:12:19.143Z,42.21
2023-05-04T12:13:20.760Z,42.19
2023-05-04T12:14:19.016Z,41.89
2023-05-04T12:15:19.032Z,41.60
2023-05-04T12:16:19.105Z,41.99
2023-05-04T12:17:19.114Z,41.30
2023-05-04T12:18:19.008Z,41.30
2023-05-04T12:19:19.036Z,41.69
2023-05-04T12:20:18.976Z,41.88
2023-05-04T12:21:18.963Z,41.77
2023-05-04T12:22:18.944Z,41.47
2023-05-04T12:23:18.936Z,41.77
2023-05-04T12:24:19.719Z,42.25
2023-05-04T12:25:18.900Z,42.15
2023-05-04T12:26:19.775Z,41.44
2023-05-04T12:27:19.018Z,41.24
2023-05-04T12:28:18.895Z,41.31
2023-05-04T12:29:19.952Z,41.87
2023-05-04T12:30:18.877Z,40.86
2023-05-04T12:31:18.903Z,40.14
2023-05-04T12:32:18.857Z,39.23
2023-05-04T12:33:18.812Z,38.20
2023-05-04T12:34:18.803Z,37.88
2023-05-04T12:35:18.798Z,37.57
2023-05-04T12:36:18.853Z,36.96
2023-05-04T12:37:18.796Z,36.84
2023-05-04T12:38:18.816Z,36.72
2023-05-04T12:39:18.755Z,35.52
2023-05-04T12:40:28.367Z,35.30
2023-05-04T12:41:19.728Z,34.30
2023-05-04T12:42:18.732Z,33.01
2023-05-04T12:43:20.828Z,32.10
2023-05-04T12:44:18.730Z,32.49
2023-05-04T12:45:18.691Z,31.99
2023-05-04T12:46:18.763Z,31.50
2023-05-04T12:47:18.685Z,32.07
2023-05-04T12:48:18.702Z,31.88
2023-05-04T12:49:19.615Z,31.86
2023-05-04T12:50:18.709Z,31.85
2023-05-04T12:51:18.652Z,31.26
2023-05-04T12:52:18.663Z,31.56